sensor_id;sensor_type;location;lat;lon;timestamp;temperature;humidity
36498;DHT22;22513;51.222;6.480;2023-01-23T00:00:30;2.10;99.90
36498;DHT22;22513;51.222;6.480;2023-01-23T00:02:56;2.10;99.90
36498;DHT22;22513;51.222;6.480;2023-01-23T00:05:22;2.00;99.90
36498;DHT22;22513;51.222;6.480;2023-01-23T00:07:47;2.10;99.90
36498;DHT22;22513;51.222;6.480;2023-01-23T00:10:13;2.10;99.90
36498;DHT22;22513;51.222;6.480;2023-01-23T00:12:43;2.00;99.90
36498;DHT22;22513;51.222;6.480;2023-01-23T00:15:11;2.10;99.90
36498;DHT22;22513;51.222;6.480;2023-01-23T00:17:37;2.10;99.90
36498;DHT22;22513;51.222;6.480;2023-01-23T00:20:06;2.10;99.90
36498;DHT22;22513;51.222;6.480;2023-01-23T00:22:32;2.10;99.90
36498;DHT22;22513;51.222;6.480;2023-01-23T00:24:58;2.10;99.90
36498;DHT22;22513;51.222;6.480;2023-01-23T00:27:23;2.10;99.90
36498;DHT22;22513;51.222;6.480;2023-01-23T00:29:51;2.10;99.90
36498;DHT22;22513;51.222;6.480;2023-01-23T00:32:17;2.10;99.90
36498;DHT22;22513;51.222;6.480;2023-01-23T00:34:44;2.10;99.90
36498;DHT22;22513;51.222;6.480;2023-01-23T00:37:10;2.10;99.90
36498;DHT22;22513;51.222;6.480;2023-01-23T00:39:35;2.10;99.90
36498;DHT22;22513;51.222;6.480;2023-01-23T00:42:01;2.10;99.90
36498;DHT22;22513;51.222;6.480;2023-01-23T00:44:27;2.10;99.90
36498;DHT22;22513;51.222;6.480;2023-01-23T00:46:52;2.10;99.90
36498;DHT22;22513;51.222;6.480;2023-01-23T00:49:18;2.10;99.90
36498;DHT22;22513;51.222;6.480;2023-01-23T00:51:44;2.10;99.90
36498;DHT22;22513;51.222;6.480;2023-01-23T00:54:10;2.10;99.90
36498;DHT22;22513;51.222;6.480;2023-01-23T00:56:36;2.10;99.90
36498;DHT22;22513;51.222;6.480;2023-01-23T00:59:01;2.10;99.90
36498;DHT22;22513;51.222;6.480;2023-01-23T01:01:27;2.10;99.90
36498;DHT22;22513;51.222;6.480;2023-01-23T01:03:55;2.20;99.90
36498;DHT22;22513;51.222;6.480;2023-01-23T01:06:21;2.20;99.90
36498;DHT22;22513;51.222;6.480;2023-01-23T01:08:47;2.20;99.90
36498;DHT22;22513;51.222;6.480;2023-01-23T01:11:13;2.20;99.90
36498;DHT22;22513;51.222;6.480;2023-01-23T01:13:38;2.20;99.90
36498;DHT22;22513;51.222;6.480;2023-01-23T01:16:05;2.20;99.90
36498;DHT22;22513;51.222;6.480;2023-01-23T01:18:30;2.20;99.90
36498;DHT22;22513;51.222;6.480;2023-01-23T01:20:57;2.20;99.90
36498;DHT22;22513;51.222;6.480;2023-01-23T01:23:22;2.30;99.90
36498;DHT22;22513;51.222;6.480;2023-01-23T01:25:48;2.30;99.90
36498;DHT22;22513;51.222;6.480;2023-01-23T01:28:13;2.20;99.90
36498;DHT22;22513;51.222;6.480;2023-01-23T01:30:39;2.30;99.90
36498;DHT22;22513;51.222;6.480;2023-01-23T01:33:05;2.30;99.90
36498;DHT22;22513;51.222;6.480;2023-01-23T01:35:31;2.20;99.90
36498;DHT22;22513;51.222;6.480;2023-01-23T01:37:58;2.30;99.90
36498;DHT22;22513;51.222;6.480;2023-01-23T01:40:26;2.30;99.90
36498;DHT22;22513;51.222;6.480;2023-01-23T01:43:04;2.20;99.90
36498;DHT22;22513;51.222;6.480;2023-01-23T01:48:23;2.30;99.90
36498;DHT22;22513;51.222;6.480;2023-01-23T01:50:50;2.30;99.90
36498;DHT22;22513;51.222;6.480;2023-01-23T01:53:15;2.30;99.90
36498;DHT22;22513;51.222;6.480;2023-01-23T01:55:41;2.30;99.90
36498;DHT22;22513;51.222;6.480;2023-01-23T01:58:08;2.30;99.90
36498;DHT22;22513;51.222;6.480;2023-01-23T02:00:34;2.30;99.90
36498;DHT22;22513;51.222;6.480;2023-01-23T02:03:01;2.30;99.90
36498;DHT22;22513;51.222;6.480;2023-01-23T02:05:41;2.30;99.90
36498;DHT22;22513;51.222;6.480;2023-01-23T02:08:30;2.30;99.90
36498;DHT22;22513;51.222;6.480;2023-01-23T02:10:58;2.30;99.90
36498;DHT22;22513;51.222;6.480;2023-01-23T02:13:32;2.30;99.90
36498;DHT22;22513;51.222;6.480;2023-01-23T02:16:07;2.30;99.90
36498;DHT22;22513;51.222;6.480;2023-01-23T02:18:36;2.30;99.90
36498;DHT22;22513;51.222;6.480;2023-01-23T02:21:05;2.20;99.90
36498;DHT22;22513;51.222;6.480;2023-01-23T02:28:48;2.20;99.90
36498;DHT22;22513;51.222;6.480;2023-01-23T02:31:14;2.20;99.90
36498;DHT22;22513;51.222;6.480;2023-01-23T02:33:46;2.20;99.90
36498;DHT22;22513;51.222;6.480;2023-01-23T02:36:12;2.20;99.90
36498;DHT22;22513;51.222;6.480;2023-01-23T02:41:27;2.20;99.90
36498;DHT22;22513;51.222;6.480;2023-01-23T02:43:53;2.20;99.90
36498;DHT22;22513;51.222;6.480;2023-01-23T02:46:20;2.20;99.90
36498;DHT22;22513;51.222;6.480;2023-01-23T02:48:46;2.30;99.90
36498;DHT22;22513;51.222;6.480;2023-01-23T02:51:13;2.30;99.90
36498;DHT22;22513;51.222;6.480;2023-01-23T02:53:38;2.30;99.90
36498;DHT22;22513;51.222;6.480;2023-01-23T02:56:04;2.30;99.90
36498;DHT22;22513;51.222;6.480;2023-01-23T02:58:30;2.40;99.90
36498;DHT22;22513;51.222;6.480;2023-01-23T03:01:14;2.40;99.90
36498;DHT22;22513;51.222;6.480;2023-01-23T03:03:39;2.40;99.90
36498;DHT22;22513;51.222;6.480;2023-01-23T03:06:09;2.40;99.90
36498;DHT22;22513;51.222;6.480;2023-01-23T03:08:35;2.40;99.90
36498;DHT22;22513;51.222;6.480;2023-01-23T03:11:11;2.40;99.90
36498;DHT22;22513;51.222;6.480;2023-01-23T03:13:37;2.40;99.90
36498;DHT22;22513;51.222;6.480;2023-01-23T03:16:03;2.40;99.90
36498;DHT22;22513;51.222;6.480;2023-01-23T03:18:28;2.40;99.90
36498;DHT22;22513;51.222;6.480;2023-01-23T03:20:59;2.50;99.90
36498;DHT22;22513;51.222;6.480;2023-01-23T03:23:25;2.40;99.90
36498;DHT22;22513;51.222;6.480;2023-01-23T03:25:50;2.40;99.90
36498;DHT22;22513;51.222;6.480;2023-01-23T03:28:26;2.30;99.90
36498;DHT22;22513;51.222;6.480;2023-01-23T03:31:11;2.30;99.90
36498;DHT22;22513;51.222;6.480;2023-01-23T03:33:38;2.30;99.90
36498;DHT22;22513;51.222;6.480;2023-01-23T03:36:11;2.20;99.90
36498;DHT22;22513;51.222;6.480;2023-01-23T03:38:37;2.20;99.90
36498;DHT22;22513;51.222;6.480;2023-01-23T03:41:03;2.20;99.90
36498;DHT22;22513;51.222;6.480;2023-01-23T03:43:47;2.20;99.90
36498;DHT22;22513;51.222;6.480;2023-01-23T03:46:13;2.10;99.90
36498;DHT22;22513;51.222;6.480;2023-01-23T03:48:38;2.10;99.90
36498;DHT22;22513;51.222;6.480;2023-01-23T03:51:04;2.00;99.90
36498;DHT22;22513;51.222;6.480;2023-01-23T03:53:30;2.00;99.90
36498;DHT22;22513;51.222;6.480;2023-01-23T03:55:56;1.90;99.90
36498;DHT22;22513;51.222;6.480;2023-01-23T03:58:21;1.80;99.90
36498;DHT22;22513;51.222;6.480;2023-01-23T04:00:47;1.80;99.90
36498;DHT22;22513;51.222;6.480;2023-01-23T04:03:13;1.70;99.90
36498;DHT22;22513;51.222;6.480;2023-01-23T04:05:38;1.70;99.90
36498;DHT22;22513;51.222;6.480;2023-01-23T04:08:04;1.60;99.90
36498;DHT22;22513;51.222;6.480;2023-01-23T04:10:30;1.50;99.90
36498;DHT22;22513;51.222;6.480;2023-01-23T04:12:55;1.50;99.90
36498;DHT22;22513;51.222;6.480;2023-01-23T04:15:21;1.40;99.90
36498;DHT22;22513;51.222;6.480;2023-01-23T04:17:46;1.40;99.90
36498;DHT22;22513;51.222;6.480;2023-01-23T04:20:13;1.50;99.90
36498;DHT22;22513;51.222;6.480;2023-01-23T04:22:38;1.60;99.90
36498;DHT22;22513;51.222;6.480;2023-01-23T04:25:04;1.70;99.90
36498;DHT22;22513;51.222;6.480;2023-01-23T04:27:31;1.80;99.90
36498;DHT22;22513;51.222;6.480;2023-01-23T04:29:57;1.80;99.90
36498;DHT22;22513;51.222;6.480;2023-01-23T04:32:23;1.90;99.90
36498;DHT22;22513;51.222;6.480;2023-01-23T04:34:49;1.90;99.90
36498;DHT22;22513;51.222;6.480;2023-01-23T04:37:15;2.00;99.90
36498;DHT22;22513;51.222;6.480;2023-01-23T04:39:41;2.00;99.90
36498;DHT22;22513;51.222;6.480;2023-01-23T04:42:06;2.00;99.90
36498;DHT22;22513;51.222;6.480;2023-01-23T04:44:32;2.10;99.90
36498;DHT22;22513;51.222;6.480;2023-01-23T04:46:57;2.10;99.90
36498;DHT22;22513;51.222;6.480;2023-01-23T04:49:24;2.10;99.90
36498;DHT22;22513;51.222;6.480;2023-01-23T04:51:51;2.10;99.90
36498;DHT22;22513;51.222;6.480;2023-01-23T04:54:17;2.10;99.90
36498;DHT22;22513;51.222;6.480;2023-01-23T04:56:44;2.10;99.90
36498;DHT22;22513;51.222;6.480;2023-01-23T04:59:10;2.10;99.90
36498;DHT22;22513;51.222;6.480;2023-01-23T05:01:36;2.10;99.90
36498;DHT22;22513;51.222;6.480;2023-01-23T05:04:01;2.10;99.90
36498;DHT22;22513;51.222;6.480;2023-01-23T05:06:28;2.10;99.90
36498;DHT22;22513;51.222;6.480;2023-01-23T05:08:53;2.10;99.90
36498;DHT22;22513;51.222;6.480;2023-01-23T05:11:19;2.20;99.90
36498;DHT22;22513;51.222;6.480;2023-01-23T05:13:44;2.20;99.90
36498;DHT22;22513;51.222;6.480;2023-01-23T05:16:10;2.20;99.90
36498;DHT22;22513;51.222;6.480;2023-01-23T05:18:35;2.20;99.90
36498;DHT22;22513;51.222;6.480;2023-01-23T05:21:01;2.20;99.90
36498;DHT22;22513;51.222;6.480;2023-01-23T05:23:27;2.20;99.90
36498;DHT22;22513;51.222;6.480;2023-01-23T05:25:53;2.20;99.90
36498;DHT22;22513;51.222;6.480;2023-01-23T05:28:18;2.20;99.90
36498;DHT22;22513;51.222;6.480;2023-01-23T05:30:44;2.20;99.90
36498;DHT22;22513;51.222;6.480;2023-01-23T05:33:09;2.20;99.90
36498;DHT22;22513;51.222;6.480;2023-01-23T05:35:37;2.30;99.90
36498;DHT22;22513;51.222;6.480;2023-01-23T05:38:03;2.30;99.90
36498;DHT22;22513;51.222;6.480;2023-01-23T05:40:28;2.30;99.90
36498;DHT22;22513;51.222;6.480;2023-01-23T05:42:54;2.30;99.90
36498;DHT22;22513;51.222;6.480;2023-01-23T05:45:19;2.40;99.90
36498;DHT22;22513;51.222;6.480;2023-01-23T05:47:45;2.40;99.90
36498;DHT22;22513;51.222;6.480;2023-01-23T05:52:42;2.40;99.90
36498;DHT22;22513;51.222;6.480;2023-01-23T05:55:08;2.40;99.90
36498;DHT22;22513;51.222;6.480;2023-01-23T05:57:34;2.50;99.90
36498;DHT22;22513;51.222;6.480;2023-01-23T06:00:00;2.50;99.90
36498;DHT22;22513;51.222;6.480;2023-01-23T06:02:25;2.50;99.90
36498;DHT22;22513;51.222;6.480;2023-01-23T06:04:51;2.50;99.90
36498;DHT22;22513;51.222;6.480;2023-01-23T06:07:18;2.60;99.90
36498;DHT22;22513;51.222;6.480;2023-01-23T06:09:44;2.60;99.90
36498;DHT22;22513;51.222;6.480;2023-01-23T06:12:09;2.60;99.90
36498;DHT22;22513;51.222;6.480;2023-01-23T06:14:35;2.60;99.90
36498;DHT22;22513;51.222;6.480;2023-01-23T06:17:01;2.60;99.90
36498;DHT22;22513;51.222;6.480;2023-01-23T06:19:27;2.60;99.90
36498;DHT22;22513;51.222;6.480;2023-01-23T06:21:53;2.60;99.90
36498;DHT22;22513;51.222;6.480;2023-01-23T06:24:18;2.60;99.90
36498;DHT22;22513;51.222;6.480;2023-01-23T06:26:44;2.60;99.90
36498;DHT22;22513;51.222;6.480;2023-01-23T06:29:09;2.60;99.90
36498;DHT22;22513;51.222;6.480;2023-01-23T06:31:35;2.50;99.90
36498;DHT22;22513;51.222;6.480;2023-01-23T06:34:01;2.60;99.90
36498;DHT22;22513;51.222;6.480;2023-01-23T06:36:27;2.50;99.90
36498;DHT22;22513;51.222;6.480;2023-01-23T06:38:52;2.50;99.90
36498;DHT22;22513;51.222;6.480;2023-01-23T06:41:18;2.50;99.90
36498;DHT22;22513;51.222;6.480;2023-01-23T06:43:44;2.50;99.90
36498;DHT22;22513;51.222;6.480;2023-01-23T06:46:10;2.50;99.90
36498;DHT22;22513;51.222;6.480;2023-01-23T06:48:37;2.50;99.90
36498;DHT22;22513;51.222;6.480;2023-01-23T06:51:03;2.50;99.90
36498;DHT22;22513;51.222;6.480;2023-01-23T06:53:29;2.50;99.90
36498;DHT22;22513;51.222;6.480;2023-01-23T06:56:00;2.50;99.90
36498;DHT22;22513;51.222;6.480;2023-01-23T06:58:26;2.50;99.90
36498;DHT22;22513;51.222;6.480;2023-01-23T07:00:53;2.50;99.90
36498;DHT22;22513;51.222;6.480;2023-01-23T07:03:19;2.40;99.90
36498;DHT22;22513;51.222;6.480;2023-01-23T07:05:44;2.50;99.90
36498;DHT22;22513;51.222;6.480;2023-01-23T07:08:10;2.50;99.90
36498;DHT22;22513;51.222;6.480;2023-01-23T07:10:36;2.50;99.90
36498;DHT22;22513;51.222;6.480;2023-01-23T07:13:11;2.50;99.90
36498;DHT22;22513;51.222;6.480;2023-01-23T07:15:37;2.40;99.90
36498;DHT22;22513;51.222;6.480;2023-01-23T07:18:02;2.40;99.90
36498;DHT22;22513;51.222;6.480;2023-01-23T07:20:28;2.40;99.90
36498;DHT22;22513;51.222;6.480;2023-01-23T07:22:54;2.50;99.90
36498;DHT22;22513;51.222;6.480;2023-01-23T07:25:21;2.50;99.90
36498;DHT22;22513;51.222;6.480;2023-01-23T07:27:47;2.50;99.90
36498;DHT22;22513;51.222;6.480;2023-01-23T07:30:13;2.50;99.90
36498;DHT22;22513;51.222;6.480;2023-01-23T07:32:39;2.50;99.90
36498;DHT22;22513;51.222;6.480;2023-01-23T07:35:05;2.50;99.90
36498;DHT22;22513;51.222;6.480;2023-01-23T07:37:31;2.60;99.90
36498;DHT22;22513;51.222;6.480;2023-01-23T07:39:56;2.60;99.90
36498;DHT22;22513;51.222;6.480;2023-01-23T07:42:22;2.60;99.90
36498;DHT22;22513;51.222;6.480;2023-01-23T07:44:48;2.60;99.90
36498;DHT22;22513;51.222;6.480;2023-01-23T07:47:13;2.70;99.90
36498;DHT22;22513;51.222;6.480;2023-01-23T07:49:39;2.70;99.90
36498;DHT22;22513;51.222;6.480;2023-01-23T07:52:04;2.70;99.90
36498;DHT22;22513;51.222;6.480;2023-01-23T07:54:30;2.80;99.90
36498;DHT22;22513;51.222;6.480;2023-01-23T07:56:56;2.70;99.90
36498;DHT22;22513;51.222;6.480;2023-01-23T07:59:21;2.80;99.90
36498;DHT22;22513;51.222;6.480;2023-01-23T08:01:47;2.80;99.90
36498;DHT22;22513;51.222;6.480;2023-01-23T08:04:15;2.80;99.90
36498;DHT22;22513;51.222;6.480;2023-01-23T08:06:40;2.80;99.90
36498;DHT22;22513;51.222;6.480;2023-01-23T08:09:06;2.80;99.90
36498;DHT22;22513;51.222;6.480;2023-01-23T08:11:32;2.80;99.90
36498;DHT22;22513;51.222;6.480;2023-01-23T08:13:57;2.80;99.90
36498;DHT22;22513;51.222;6.480;2023-01-23T08:16:23;2.80;99.90
36498;DHT22;22513;51.222;6.480;2023-01-23T08:18:48;2.80;99.90
36498;DHT22;22513;51.222;6.480;2023-01-23T08:21:14;2.80;99.90
36498;DHT22;22513;51.222;6.480;2023-01-23T08:23:40;2.80;99.90
36498;DHT22;22513;51.222;6.480;2023-01-23T08:26:07;2.80;99.90
36498;DHT22;22513;51.222;6.480;2023-01-23T08:28:34;2.80;99.90
36498;DHT22;22513;51.222;6.480;2023-01-23T08:31:05;2.80;99.90
36498;DHT22;22513;51.222;6.480;2023-01-23T08:33:31;2.90;99.90
36498;DHT22;22513;51.222;6.480;2023-01-23T08:35:58;2.90;99.90
36498;DHT22;22513;51.222;6.480;2023-01-23T08:38:24;2.90;99.90
36498;DHT22;22513;51.222;6.480;2023-01-23T08:40:51;2.90;99.90
36498;DHT22;22513;51.222;6.480;2023-01-23T08:43:18;2.90;99.90
36498;DHT22;22513;51.222;6.480;2023-01-23T08:45:51;2.90;99.90
36498;DHT22;22513;51.222;6.480;2023-01-23T08:48:17;3.00;99.90
36498;DHT22;22513;51.222;6.480;2023-01-23T08:50:43;3.00;99.90
36498;DHT22;22513;51.222;6.480;2023-01-23T08:53:09;3.00;99.90
36498;DHT22;22513;51.222;6.480;2023-01-23T08:55:35;3.10;99.90
36498;DHT22;22513;51.222;6.480;2023-01-23T08:58:03;3.10;99.90
36498;DHT22;22513;51.222;6.480;2023-01-23T09:00:29;3.20;99.90
36498;DHT22;22513;51.222;6.480;2023-01-23T09:02:57;3.20;99.90
36498;DHT22;22513;51.222;6.480;2023-01-23T09:05:23;3.20;99.90
36498;DHT22;22513;51.222;6.480;2023-01-23T09:07:48;3.20;99.90
36498;DHT22;22513;51.222;6.480;2023-01-23T09:10:14;3.30;99.90
36498;DHT22;22513;51.222;6.480;2023-01-23T09:12:40;3.30;99.90
36498;DHT22;22513;51.222;6.480;2023-01-23T09:15:07;3.30;99.90
36498;DHT22;22513;51.222;6.480;2023-01-23T09:17:34;3.30;99.90
36498;DHT22;22513;51.222;6.480;2023-01-23T09:19:59;3.30;99.90
36498;DHT22;22513;51.222;6.480;2023-01-23T09:22:26;3.30;99.90
36498;DHT22;22513;51.222;6.480;2023-01-23T09:24:52;3.40;99.90
36498;DHT22;22513;51.222;6.480;2023-01-23T09:27:18;3.40;99.90
36498;DHT22;22513;51.222;6.480;2023-01-23T09:29:48;3.40;99.90
36498;DHT22;22513;51.222;6.480;2023-01-23T09:32:13;3.50;99.90
36498;DHT22;22513;51.222;6.480;2023-01-23T09:34:39;3.50;99.90
36498;DHT22;22513;51.222;6.480;2023-01-23T09:37:04;3.50;99.90
36498;DHT22;22513;51.222;6.480;2023-01-23T09:39:30;3.50;99.90
36498;DHT22;22513;51.222;6.480;2023-01-23T09:41:56;3.60;99.90
36498;DHT22;22513;51.222;6.480;2023-01-23T09:44:43;3.60;99.90
36498;DHT22;22513;51.222;6.480;2023-01-23T09:47:32;3.50;99.90
36498;DHT22;22513;51.222;6.480;2023-01-23T09:50:05;3.50;99.90
36498;DHT22;22513;51.222;6.480;2023-01-23T09:52:43;3.60;99.90
36498;DHT22;22513;51.222;6.480;2023-01-23T09:55:34;3.60;99.90
36498;DHT22;22513;51.222;6.480;2023-01-23T09:58:00;3.60;99.90
36498;DHT22;22513;51.222;6.480;2023-01-23T10:00:31;3.60;99.90
36498;DHT22;22513;51.222;6.480;2023-01-23T10:02:59;3.60;99.90
36498;DHT22;22513;51.222;6.480;2023-01-23T10:16:38;3.60;99.90
36498;DHT22;22513;51.222;6.480;2023-01-23T10:21:51;3.60;99.90
36498;DHT22;22513;51.222;6.480;2023-01-23T10:26:45;3.70;99.90
36498;DHT22;22513;51.222;6.480;2023-01-23T10:29:38;3.70;99.90
36498;DHT22;22513;51.222;6.480;2023-01-23T10:32:22;3.80;99.90
36498;DHT22;22513;51.222;6.480;2023-01-23T10:40:17;3.90;99.90
36498;DHT22;22513;51.222;6.480;2023-01-23T10:43:13;4.00;99.90
36498;DHT22;22513;51.222;6.480;2023-01-23T10:45:40;4.00;99.90
36498;DHT22;22513;51.222;6.480;2023-01-23T10:50:53;4.10;99.90
36498;DHT22;22513;51.222;6.480;2023-01-23T10:53:20;4.20;99.90
36498;DHT22;22513;51.222;6.480;2023-01-23T10:55:47;4.30;99.90
36498;DHT22;22513;51.222;6.480;2023-01-23T11:01:00;4.20;99.90
36498;DHT22;22513;51.222;6.480;2023-01-23T11:03:31;4.20;99.90
36498;DHT22;22513;51.222;6.480;2023-01-23T11:08:37;4.30;99.90
36498;DHT22;22513;51.222;6.480;2023-01-23T11:13:45;4.30;99.90
36498;DHT22;22513;51.222;6.480;2023-01-23T11:18:41;4.30;99.90
36498;DHT22;22513;51.222;6.480;2023-01-23T11:21:23;4.30;99.90
36498;DHT22;22513;51.222;6.480;2023-01-23T11:24:48;4.40;99.90
36498;DHT22;22513;51.222;6.480;2023-01-23T11:29:23;4.50;99.90
36498;DHT22;22513;51.222;6.480;2023-01-23T11:34:24;4.30;99.90
36498;DHT22;22513;51.222;6.480;2023-01-23T11:37:14;4.30;99.90
36498;DHT22;22513;51.222;6.480;2023-01-23T11:40:10;4.30;99.90
36498;DHT22;22513;51.222;6.480;2023-01-23T11:42:39;4.40;99.90
36498;DHT22;22513;51.222;6.480;2023-01-23T11:45:13;4.40;99.90
36498;DHT22;22513;51.222;6.480;2023-01-23T12:04:30;4.60;99.90
36498;DHT22;22513;51.222;6.480;2023-01-23T12:07:17;4.60;99.90
36498;DHT22;22513;51.222;6.480;2023-01-23T12:15:31;4.50;99.90
36498;DHT22;22513;51.222;6.480;2023-01-23T12:18:10;4.50;99.90
36498;DHT22;22513;51.222;6.480;2023-01-23T12:20:51;4.60;99.90
36498;DHT22;22513;51.222;6.480;2023-01-23T12:26:04;4.60;99.90
36498;DHT22;22513;51.222;6.480;2023-01-23T12:31:37;4.40;99.90
36498;DHT22;22513;51.222;6.480;2023-01-23T12:39:16;4.50;99.90
36498;DHT22;22513;51.222;6.480;2023-01-23T12:44:30;4.40;99.90
36498;DHT22;22513;51.222;6.480;2023-01-23T12:47:05;4.40;99.90
36498;DHT22;22513;51.222;6.480;2023-01-23T12:50:13;4.40;99.90
36498;DHT22;22513;51.222;6.480;2023-01-23T12:57:47;4.40;99.90
36498;DHT22;22513;51.222;6.480;2023-01-23T13:11:13;4.40;99.90
36498;DHT22;22513;51.222;6.480;2023-01-23T13:14:00;4.40;99.90
36498;DHT22;22513;51.222;6.480;2023-01-23T13:16:30;4.40;99.90
36498;DHT22;22513;51.222;6.480;2023-01-23T13:18:56;4.40;99.90
36498;DHT22;22513;51.222;6.480;2023-01-23T13:32:58;4.30;99.90
36498;DHT22;22513;51.222;6.480;2023-01-23T13:43:52;4.30;99.90
36498;DHT22;22513;51.222;6.480;2023-01-23T13:46:56;4.30;99.90
36498;DHT22;22513;51.222;6.480;2023-01-23T13:52:35;4.30;99.90
36498;DHT22;22513;51.222;6.480;2023-01-23T13:55:25;4.30;99.90
36498;DHT22;22513;51.222;6.480;2023-01-23T13:58:15;4.30;99.90
36498;DHT22;22513;51.222;6.480;2023-01-23T14:00:48;4.20;99.90
36498;DHT22;22513;51.222;6.480;2023-01-23T14:03:34;4.30;99.90
36498;DHT22;22513;51.222;6.480;2023-01-23T14:06:34;4.30;99.90
36498;DHT22;22513;51.222;6.480;2023-01-23T14:09:00;4.30;99.90
36498;DHT22;22513;51.222;6.480;2023-01-23T14:11:35;4.30;99.90
36498;DHT22;22513;51.222;6.480;2023-01-23T14:14:03;4.30;99.90
36498;DHT22;22513;51.222;6.480;2023-01-23T14:16:48;4.20;99.90
36498;DHT22;22513;51.222;6.480;2023-01-23T14:19:27;4.20;99.90
36498;DHT22;22513;51.222;6.480;2023-01-23T14:21:55;4.20;99.90
36498;DHT22;22513;51.222;6.480;2023-01-23T14:24:25;4.20;99.90
36498;DHT22;22513;51.222;6.480;2023-01-23T14:26:59;4.20;99.90
36498;DHT22;22513;51.222;6.480;2023-01-23T14:29:26;4.20;99.90
36498;DHT22;22513;51.222;6.480;2023-01-23T14:31:53;4.20;99.90
36498;DHT22;22513;51.222;6.480;2023-01-23T14:34:23;4.30;99.90
36498;DHT22;22513;51.222;6.480;2023-01-23T14:39:22;4.30;99.90
36498;DHT22;22513;51.222;6.480;2023-01-23T14:41:52;4.30;99.90
36498;DHT22;22513;51.222;6.480;2023-01-23T14:44:22;4.20;99.90
36498;DHT22;22513;51.222;6.480;2023-01-23T14:46:53;4.20;99.90
36498;DHT22;22513;51.222;6.480;2023-01-23T14:49:25;4.20;99.90
36498;DHT22;22513;51.222;6.480;2023-01-23T14:51:56;4.20;99.90
36498;DHT22;22513;51.222;6.480;2023-01-23T14:54:22;4.20;99.90
36498;DHT22;22513;51.222;6.480;2023-01-23T14:56:48;4.30;99.90
36498;DHT22;22513;51.222;6.480;2023-01-23T15:01:56;4.20;99.90
36498;DHT22;22513;51.222;6.480;2023-01-23T15:04:23;4.10;99.90
36498;DHT22;22513;51.222;6.480;2023-01-23T15:06:51;4.10;99.90
36498;DHT22;22513;51.222;6.480;2023-01-23T15:09:21;4.10;99.90
36498;DHT22;22513;51.222;6.480;2023-01-23T15:11:48;4.10;99.90
36498;DHT22;22513;51.222;6.480;2023-01-23T15:14:26;4.10;99.90
36498;DHT22;22513;51.222;6.480;2023-01-23T15:17:04;4.10;99.90
36498;DHT22;22513;51.222;6.480;2023-01-23T15:19:30;4.10;99.90
36498;DHT22;22513;51.222;6.480;2023-01-23T15:24:34;4.10;99.90
36498;DHT22;22513;51.222;6.480;2023-01-23T15:27:02;4.10;99.90
36498;DHT22;22513;51.222;6.480;2023-01-23T15:29:28;4.20;99.90
36498;DHT22;22513;51.222;6.480;2023-01-23T15:31:55;4.10;99.90
36498;DHT22;22513;51.222;6.480;2023-01-23T15:34:32;4.10;99.90
36498;DHT22;22513;51.222;6.480;2023-01-23T15:39:49;4.10;99.90
36498;DHT22;22513;51.222;6.480;2023-01-23T15:44:41;4.10;99.90
36498;DHT22;22513;51.222;6.480;2023-01-23T15:47:08;4.10;99.90
36498;DHT22;22513;51.222;6.480;2023-01-23T15:49:38;4.10;99.90
36498;DHT22;22513;51.222;6.480;2023-01-23T15:52:25;4.10;99.90
36498;DHT22;22513;51.222;6.480;2023-01-23T15:54:57;4.00;99.90
36498;DHT22;22513;51.222;6.480;2023-01-23T15:57:23;4.00;99.90
36498;DHT22;22513;51.222;6.480;2023-01-23T15:59:49;4.00;99.90
36498;DHT22;22513;51.222;6.480;2023-01-23T16:02:17;4.00;99.90
36498;DHT22;22513;51.222;6.480;2023-01-23T16:04:44;3.90;99.90
36498;DHT22;22513;51.222;6.480;2023-01-23T16:07:22;3.90;99.90
36498;DHT22;22513;51.222;6.480;2023-01-23T16:09:48;3.90;99.90
36498;DHT22;22513;51.222;6.480;2023-01-23T16:14:42;3.80;99.90
36498;DHT22;22513;51.222;6.480;2023-01-23T16:17:07;3.80;99.90
36498;DHT22;22513;51.222;6.480;2023-01-23T16:19:33;3.80;99.90
36498;DHT22;22513;51.222;6.480;2023-01-23T16:21:59;3.80;99.90
36498;DHT22;22513;51.222;6.480;2023-01-23T16:24:24;3.80;99.90
36498;DHT22;22513;51.222;6.480;2023-01-23T16:26:51;3.80;99.90
36498;DHT22;22513;51.222;6.480;2023-01-23T16:29:29;3.80;99.90
36498;DHT22;22513;51.222;6.480;2023-01-23T16:31:55;3.70;99.90
36498;DHT22;22513;51.222;6.480;2023-01-23T16:34:21;3.70;99.90
36498;DHT22;22513;51.222;6.480;2023-01-23T16:36:48;3.70;99.90
36498;DHT22;22513;51.222;6.480;2023-01-23T16:39:20;3.70;99.90
36498;DHT22;22513;51.222;6.480;2023-01-23T16:41:46;3.70;99.90
36498;DHT22;22513;51.222;6.480;2023-01-23T16:44:17;3.70;99.90
36498;DHT22;22513;51.222;6.480;2023-01-23T16:46:47;3.70;99.90
36498;DHT22;22513;51.222;6.480;2023-01-23T16:49:13;3.70;99.90
36498;DHT22;22513;51.222;6.480;2023-01-23T16:51:45;3.70;99.90
36498;DHT22;22513;51.222;6.480;2023-01-23T16:54:14;3.60;99.90
36498;DHT22;22513;51.222;6.480;2023-01-23T16:56:42;3.70;99.90
36498;DHT22;22513;51.222;6.480;2023-01-23T16:59:17;3.60;99.90
36498;DHT22;22513;51.222;6.480;2023-01-23T17:01:47;3.60;99.90
36498;DHT22;22513;51.222;6.480;2023-01-23T17:04:17;3.60;99.90
36498;DHT22;22513;51.222;6.480;2023-01-23T17:06:43;3.60;99.90
36498;DHT22;22513;51.222;6.480;2023-01-23T17:09:11;3.60;99.90
36498;DHT22;22513;51.222;6.480;2023-01-23T17:12:12;3.60;99.90
36498;DHT22;22513;51.222;6.480;2023-01-23T17:14:31;3.60;99.90
36498;DHT22;22513;51.222;6.480;2023-01-23T17:17:01;3.60;99.90
36498;DHT22;22513;51.222;6.480;2023-01-23T17:19:30;3.60;99.90
36498;DHT22;22513;51.222;6.480;2023-01-23T17:21:58;3.50;99.90
36498;DHT22;22513;51.222;6.480;2023-01-23T17:24:24;3.50;99.90
36498;DHT22;22513;51.222;6.480;2023-01-23T17:26:50;3.50;99.90
36498;DHT22;22513;51.222;6.480;2023-01-23T17:29:16;3.50;99.90
36498;DHT22;22513;51.222;6.480;2023-01-23T17:31:41;3.50;99.90
36498;DHT22;22513;51.222;6.480;2023-01-23T17:34:19;3.40;99.90
36498;DHT22;22513;51.222;6.480;2023-01-23T17:36:46;3.40;99.90
36498;DHT22;22513;51.222;6.480;2023-01-23T17:39:11;3.40;99.90
36498;DHT22;22513;51.222;6.480;2023-01-23T17:41:37;3.40;99.90
36498;DHT22;22513;51.222;6.480;2023-01-23T17:44:03;3.40;99.90
36498;DHT22;22513;51.222;6.480;2023-01-23T17:46:30;3.40;99.90
36498;DHT22;22513;51.222;6.480;2023-01-23T17:48:57;3.40;99.90
36498;DHT22;22513;51.222;6.480;2023-01-23T17:51:23;3.40;99.90
36498;DHT22;22513;51.222;6.480;2023-01-23T17:53:50;3.40;99.90
36498;DHT22;22513;51.222;6.480;2023-01-23T17:56:15;3.40;99.90
36498;DHT22;22513;51.222;6.480;2023-01-23T17:58:41;3.40;99.90
36498;DHT22;22513;51.222;6.480;2023-01-23T18:01:21;3.40;99.90
36498;DHT22;22513;51.222;6.480;2023-01-23T18:03:49;3.40;99.90
36498;DHT22;22513;51.222;6.480;2023-01-23T18:06:15;3.40;99.90
36498;DHT22;22513;51.222;6.480;2023-01-23T18:08:41;3.30;99.90
36498;DHT22;22513;51.222;6.480;2023-01-23T18:11:23;3.30;99.90
36498;DHT22;22513;51.222;6.480;2023-01-23T18:16:23;3.30;99.90
36498;DHT22;22513;51.222;6.480;2023-01-23T18:19:00;3.30;99.90
36498;DHT22;22513;51.222;6.480;2023-01-23T18:21:29;3.30;99.90